Time;durP1;ratioP1;P1;durP2;ratioP2;P2;SDS_P1;SDS_P2;PMS_P1;PMS_P2;Temp;Humidity;BMP_temperature;BMP_pressure;BME280_temperature;BME280_humidity;BME280_pressure;Samples;Min_cycle;Max_cycle;Signal;HPM_P1;HPM_P2
2023/09/16 00:01:18;;;;;;;21.67;20.30;;;19.30;99.90;;;;;;5030571;28;21085;-82
2023/09/16 00:03:47;;;;;;;22.33;21.03;;;19.30;99.90;;;;;;5030124;28;20460;-82
2023/09/16 00:06:16;;;;;;;22.03;20.73;;;19.30;99.90;;;;;;5031552;28;20449;-81
2023/09/16 00:08:44;;;;;;;22.20;20.87;;;19.30;99.90;;;;;;5027578;28;20839;-83
2023/09/16 00:11:13;;;;;;;21.87;20.67;;;19.20;99.90;;;;;;5029687;28;20454;-81
2023/09/16 00:13:43;;;;;;;21.87;20.67;;;19.20;99.90;;;;;;5026416;28;20506;-81
2023/09/16 00:16:15;;;;;;;22.57;21.17;;;19.20;99.90;;;;;;5024099;28;20477;-80
2023/09/16 00:18:43;;;;;;;22.80;21.30;;;19.10;1.00;;;;;;5026866;28;20465;-82
2023/09/16 00:21:14;;;;;;;21.70;20.60;;;19.00;99.90;;;;;;5027262;28;20448;-82
2023/09/16 00:23:43;;;;;;;22.33;21.03;;;19.10;99.90;;;;;;5028354;28;20508;-82
2023/09/16 00:26:13;;;;;;;22.67;21.37;;;19.00;99.90;;;;;;5023872;28;21137;-83
2023/09/16 00:28:46;;;;;;;22.83;21.57;;;18.90;99.90;;;;;;5019109;28;20471;-82
2023/09/16 00:31:18;;;;;;;21.67;20.33;;;18.90;1.00;;;;;;5025822;28;20507;-82
2023/09/16 00:33:49;;;;;;;21.90;20.73;;;18.90;1.00;;;;;;5025266;28;20456;-82
2023/09/16 00:36:17;;;;;;;21.87;20.53;;;18.90;1.00;;;;;;5024013;28;20482;-79
2023/09/16 00:38:48;;;;;;;22.23;20.93;;;18.90;1.00;;;;;;5021804;28;21073;-80
2023/09/16 00:41:19;;;;;;;22.80;21.40;;;18.90;1.00;;;;;;5022018;28;20939;-82
2023/09/16 00:43:47;;;;;;;22.20;21.00;;;18.90;1.00;;;;;;5022079;28;20513;-83
2023/09/16 00:46:15;;;;;;;24.50;22.80;;;18.90;1.00;;;;;;5021478;28;20488;-81
2023/09/16 00:48:51;;;;;;;23.63;22.23;;;18.80;1.00;;;;;;5022197;28;22371;-81
2023/09/16 00:51:34;;;;;;;23.80;22.40;;;18.80;99.90;;;;;;5022846;28;20457;-80
2023/09/16 00:54:04;;;;;;;25.70;24.00;;;18.90;99.90;;;;;;5024663;28;20468;-79
2023/09/16 00:56:32;;;;;;;23.90;22.40;;;18.90;99.90;;;;;;5026087;28;20448;-82
2023/09/16 00:59:00;;;;;;;22.33;20.93;;;19.00;99.90;;;;;;5026587;28;20604;-82
2023/09/16 01:01:29;;;;;;;23.37;21.97;;;19.00;1.00;;;;;;5026395;28;20449;-82
2023/09/16 01:03:58;;;;;;;23.60;22.10;;;18.90;1.00;;;;;;5026321;28;20469;-81
2023/09/16 01:06:53;;;;;;;22.43;21.13;;;18.90;1.00;;;;;;5024036;28;20504;-81
2023/09/16 01:09:23;;;;;;;24.33;22.60;;;18.90;1.00;;;;;;5024051;28;20488;-81
2023/09/16 01:11:51;;;;;;;22.73;21.37;;;18.90;40.80;;;;;;5025529;28;21464;-83
2023/09/16 01:14:19;;;;;;;23.73;22.33;;;18.90;1.00;;;;;;5028271;28;20477;-81
2023/09/16 01:16:53;;;;;;;23.30;21.90;;;18.80;96.90;;;;;;5024906;28;20466;-80
2023/09/16 01:19:33;;;;;;;24.57;23.03;;;18.80;99.90;;;;;;5019251;28;20880;-80
2023/09/16 01:22:03;;;;;;;23.80;22.30;;;18.80;99.90;;;;;;5019661;28;21002;-81
2023/09/16 01:24:32;;;;;;;22.23;21.03;;;18.80;99.90;;;;;;5019293;28;21152;-81
2023/09/16 01:27:02;;;;;;;22.10;20.90;;;18.80;1.00;;;;;;5016192;28;20461;-80
2023/09/16 01:29:30;;;;;;;22.07;20.67;;;18.70;1.00;;;;;;5021937;28;20485;-80
2023/09/16 01:32:04;;;;;;;23.80;22.37;;;18.70;1.00;;;;;;5019727;28;20840;-81
2023/09/16 01:34:40;;;;;;;22.97;21.50;;;18.80;1.00;;;;;;5025739;28;20446;-82
2023/09/16 01:37:15;;;;;;;21.47;20.23;;;18.60;1.00;;;;;;5024535;28;20528;-81
2023/09/16 01:39:46;;;;;;;22.90;21.30;;;18.60;1.00;;;;;;5020807;28;20475;-80
2023/09/16 01:42:17;;;;;;;24.00;22.30;;;18.60;1.00;;;;;;5021520;28;20459;-81
2023/09/16 01:44:48;;;;;;;22.23;20.83;;;18.50;1.00;;;;;;5021671;28;20491;-81
2023/09/16 01:47:16;;;;;;;23.30;21.83;;;18.50;1.00;;;;;;5022822;28;20461;-80
2023/09/16 01:49:44;;;;;;;21.60;20.40;;;18.60;1.00;;;;;;5024655;28;20485;-79
2023/09/16 01:52:12;;;;;;;22.77;21.37;;;18.50;1.00;;;;;;5021879;28;20465;-80
2023/09/16 01:54:41;;;;;;;21.40;20.00;;;18.40;1.00;;;;;;5021585;28;20469;-81
2023/09/16 01:57:09;;;;;;;20.60;19.53;;;18.40;1.00;;;;;;5024162;28;20499;-82
2023/09/16 01:59:38;;;;;;;21.30;20.00;;;18.40;1.00;;;;;;5025475;28;20478;-81
2023/09/16 02:02:07;;;;;;;21.47;20.20;;;18.50;1.00;;;;;;5011016;28;20461;-81
2023/09/16 02:04:36;;;;;;;20.97;19.80;;;18.50;1.00;;;;;;5027139;28;20456;-81
2023/09/16 02:07:04;;;;;;;21.60;20.37;;;18.50;1.00;;;;;;5019186;28;20455;-80
2023/09/16 02:09:32;;;;;;;24.03;22.47;;;18.50;1.00;;;;;;5027722;28;20484;-83
2023/09/16 02:12:00;;;;;;;22.30;20.97;;;18.50;86.70;;;;;;5027338;28;20511;-82
2023/09/16 02:14:29;;;;;;;22.17;20.87;;;18.50;1.00;;;;;;5026239;28;20448;-82
2023/09/16 02:16:59;;;;;;;23.33;21.90;;;18.50;1.00;;;;;;5026266;28;20450;-81
2023/09/16 02:19:28;;;;;;;23.03;21.63;;;18.60;75.30;;;;;;5028478;28;20484;-81
2023/09/16 02:21:56;;;;;;;22.47;21.00;;;18.60;1.00;;;;;;5021994;28;20456;-82
2023/09/16 02:24:25;;;;;;;23.43;21.90;;;18.60;1.00;;;;;;5025200;28;20567;-80
2023/09/16 02:26:53;;;;;;;22.80;21.40;;;18.50;5.60;;;;;;5025573;28;20812;-81
2023/09/16 02:29:21;;;;;;;23.93;22.43;;;18.60;99.90;;;;;;5008729;28;20540;-80
2023/09/16 02:31:50;;;;;;;23.53;22.07;;;18.50;99.90;;;;;;5024779;28;20485;-80
2023/09/16 02:34:19;;;;;;;24.23;22.43;;;18.50;1.00;;;;;;5025651;28;20457;-82
2023/09/16 02:36:47;;;;;;;25.20;23.47;;;18.50;1.00;;;;;;5028111;28;20457;-82
2023/09/16 02:39:16;;;;;;;24.67;23.00;;;18.60;99.90;;;;;;5022517;28;20488;-80
2023/09/16 02:41:44;;;;;;;24.70;23.10;;;18.70;57.70;;;;;;5024833;28;20454;-81
2023/09/16 02:44:12;;;;;;;23.93;22.33;;;18.80;71.80;;;;;;5023454;28;20464;-82
2023/09/16 02:46:40;;;;;;;25.50;23.80;;;18.90;1.00;;;;;;5019220;28;20463;-80
2023/09/16 02:49:08;;;;;;;25.43;23.73;;;18.80;72.70;;;;;;5015652;28;22269;-83
2023/09/16 02:51:38;;;;;;;25.20;23.50;;;18.90;99.90;;;;;;5020773;28;20445;-82
2023/09/16 02:54:06;;;;;;;25.63;24.03;;;18.90;97.50;;;;;;5021430;28;20540;-81
2023/09/16 02:56:34;;;;;;;25.60;24.00;;;19.00;1.00;;;;;;5024558;28;20978;-82
2023/09/16 02:59:02;;;;;;;25.13;23.43;;;19.00;47.20;;;;;;5020901;28;20470;-82
2023/09/16 03:01:31;;;;;;;25.13;23.43;;;19.00;99.90;;;;;;5008735;28;20450;-82
2023/09/16 03:03:59;;;;;;;25.07;23.37;;;19.00;99.90;;;;;;5025002;28;20564;-79
2023/09/16 03:06:27;;;;;;;24.67;23.17;;;19.00;98.70;;;;;;5026305;28;20460;-82
2023/09/16 03:08:57;;;;;;;25.10;23.37;;;19.10;89.00;;;;;;5024772;28;20504;-82
2023/09/16 03:11:25;;;;;;;25.80;23.90;;;19.10;99.90;;;;;;5030569;28;20958;-80
2023/09/16 03:13:54;;;;;;;25.83;23.93;;;19.10;97.40;;;;;;5028716;28;20500;-81
2023/09/16 03:16:24;;;;;;;24.97;23.20;;;19.10;99.90;;;;;;5027927;28;20550;-83
2023/09/16 03:18:53;;;;;;;23.90;22.20;;;19.10;1.00;;;;;;5012712;28;20520;-81
2023/09/16 03:21:25;;;;;;;25.27;23.50;;;19.00;99.90;;;;;;5030684;28;20504;-81
2023/09/16 03:23:53;;;;;;;24.13;22.47;;;19.00;99.90;;;;;;5030238;28;20457;-80
2023/09/16 03:26:22;;;;;;;25.33;23.57;;;19.00;99.90;;;;;;5028142;28;21502;-81
2023/09/16 03:28:54;;;;;;;24.43;23.03;;;19.00;99.90;;;;;;5025492;28;20491;-80
2023/09/16 03:31:22;;;;;;;27.10;25.20;;;18.90;1.00;;;;;;5024018;28;20460;-81
2023/09/16 03:33:50;;;;;;;26.87;25.00;;;18.90;99.90;;;;;;5021666;28;20546;-82
2023/09/16 03:36:18;;;;;;;26.00;24.17;;;19.00;99.90;;;;;;5023643;28;20448;-79
2023/09/16 03:38:49;;;;;;;25.93;24.13;;;19.00;99.90;;;;;;5019338;28;20591;-79
2023/09/16 03:41:18;;;;;;;25.30;23.60;;;18.90;99.90;;;;;;5021649;28;20976;-81
2023/09/16 03:43:47;;;;;;;24.97;23.37;;;18.90;99.90;;;;;;5022940;28;20993;-82
2023/09/16 03:46:17;;;;;;;25.40;23.67;;;18.90;1.00;;;;;;5024094;28;20461;-80
2023/09/16 03:48:45;;;;;;;26.40;24.53;;;18.90;1.00;;;;;;5023374;28;20482;-79
2023/09/16 03:51:14;;;;;;;27.83;25.70;;;18.90;1.00;;;;;;5018606;28;20978;-80
2023/09/16 03:53:42;;;;;;;26.67;24.77;;;18.80;99.90;;;;;;5021449;28;20466;-80
2023/09/16 03:56:11;;;;;;;26.43;24.67;;;18.90;99.90;;;;;;5024698;28;20825;-82
2023/09/16 03:58:40;;;;;;;26.47;24.70;;;18.90;99.90;;;;;;5021997;28;20473;-82
2023/09/16 04:01:09;;;;;;;25.40;23.57;;;18.80;99.90;;;;;;5021204;28;20570;-80
2023/09/16 04:03:38;;;;;;;26.10;24.20;;;18.80;1.00;;;;;;5017204;28;20555;-79
2023/09/16 04:06:06;;;;;;;26.40;24.60;;;18.70;99.90;;;;;;5020981;28;20460;-79
2023/09/16 04:08:35;;;;;;;25.83;24.00;;;18.70;99.90;;;;;;5023029;28;20476;-81
2023/09/16 04:11:10;;;;;;;27.17;25.17;;;18.60;99.90;;;;;;5019377;28;20500;-80
2023/09/16 04:13:38;;;;;;;26.37;24.47;;;18.70;1.00;;;;;;5021316;28;20467;-80
2023/09/16 04:16:07;;;;;;;27.60;25.70;;;18.70;99.90;;;;;;5025890;28;21133;-79
2023/09/16 04:18:37;;;;;;;28.10;26.20;;;18.60;99.90;;;;;;5019538;28;20467;-80
2023/09/16 04:21:06;;;;;;;28.67;26.47;;;18.70;99.90;;;;;;5024535;28;20464;-81
2023/09/16 04:23:35;;;;;;;27.20;25.30;;;18.70;99.90;;;;;;5023482;28;21373;-81
2023/09/16 04:26:04;;;;;;;28.67;26.60;;;18.70;99.90;;;;;;5024985;28;20448;-80
2023/09/16 04:28:32;;;;;;;25.83;24.03;;;18.70;1.00;;;;;;5022897;28;20500;-81
2023/09/16 04:31:00;;;;;;;27.17;25.40;;;18.80;1.00;;;;;;5021371;28;20484;-80
2023/09/16 04:33:28;;;;;;;27.90;26.00;;;18.70;99.90;;;;;;5021982;28;20510;-80
2023/09/16 04:35:59;;;;;;;26.33;24.40;;;18.80;99.90;;;;;;5004765;28;20921;-80
2023/09/16 04:38:28;;;;;;;27.60;25.60;;;18.80;1.00;;;;;;5021509;28;20559;-80
2023/09/16 04:40:56;;;;;;;27.40;25.50;;;18.70;99.90;;;;;;5025948;28;20457;-82
2023/09/16 04:43:25;;;;;;;26.70;24.70;;;18.60;99.90;;;;;;5026510;28;20548;-83
2023/09/16 04:45:54;;;;;;;27.67;25.63;;;18.60;99.90;;;;;;5028875;28;20461;-79
2023/09/16 04:48:23;;;;;;;27.90;25.90;;;18.60;99.90;;;;;;5006477;28;21136;-79
2023/09/16 04:50:51;;;;;;;25.30;23.60;;;18.50;99.90;;;;;;5029703;28;20515;-81
2023/09/16 04:53:20;;;;;;;26.97;25.17;;;18.50;99.90;;;;;;5032295;28;20461;-81
2023/09/16 04:55:48;;;;;;;26.77;24.87;;;18.50;99.90;;;;;;5027882;28;20541;-80
2023/09/16 04:58:17;;;;;;;27.13;25.23;;;18.40;99.90;;;;;;5009300;28;20504;-82
2023/09/16 05:00:45;;;;;;;27.20;25.30;;;18.40;1.00;;;;;;5025600;28;20460;-84
2023/09/16 05:03:13;;;;;;;27.10;25.20;;;18.40;1.00;;;;;;5023510;28;20457;-84
2023/09/16 05:05:41;;;;;;;28.63;26.60;;;18.40;99.90;;;;;;5026913;28;20979;-79
2023/09/16 05:08:09;;;;;;;29.13;27.03;;;18.40;1.00;;;;;;5024177;28;20481;-83
2023/09/16 05:10:39;;;;;;;28.90;26.80;;;18.40;1.00;;;;;;5026523;28;20473;-81
2023/09/16 05:13:07;;;;;;;28.70;26.60;;;18.50;1.00;;;;;;5028334;28;20445;-82
2023/09/16 05:15:35;;;;;;;29.40;27.20;;;18.60;99.90;;;;;;5008306;28;20476;-82
2023/09/16 05:18:03;;;;;;;28.83;26.73;;;18.60;99.90;;;;;;5008838;28;20488;-79
2023/09/16 05:20:33;;;;;;;29.97;27.57;;;18.60;46.50;;;;;;5026089;28;20441;-80
2023/09/16 05:23:01;;;;;;;29.57;27.47;;;18.60;99.90;;;;;;5024155;28;20457;-80
2023/09/16 05:25:29;;;;;;;29.20;27.10;;;18.60;48.00;;;;;;5029693;28;20567;-83
2023/09/16 05:27:59;;;;;;;28.40;26.40;;;18.60;1.00;;;;;;5017203;28;20461;-82
2023/09/16 05:30:27;;;;;;;28.67;26.77;;;18.60;1.00;;;;;;5025020;28;20481;-78
2023/09/16 05:32:55;;;;;;;28.07;26.10;;;18.60;1.00;;;;;;5026567;28;20805;-80
2023/09/16 05:35:23;;;;;;;30.73;28.60;;;18.50;1.00;;;;;;5024351;28;21172;-81
2023/09/16 05:37:51;;;;;;;28.37;26.37;;;18.50;1.00;;;;;;5027867;28;20908;-81
2023/09/16 05:40:19;;;;;;;27.90;26.07;;;18.50;1.00;;;;;;5021736;28;20457;-80
2023/09/16 05:42:48;;;;;;;27.67;25.70;;;18.50;1.00;;;;;;5023144;28;20454;-80
2023/09/16 05:45:17;;;;;;;28.30;26.23;;;18.40;99.90;;;;;;5027237;28;20509;-82
2023/09/16 05:47:48;;;;;;;29.37;27.20;;;18.40;99.90;;;;;;5026593;28;20449;-82
2023/09/16 05:50:17;;;;;;;28.37;26.47;;;18.40;99.90;;;;;;5025100;28;20473;-83
2023/09/16 05:52:45;;;;;;;29.17;27.10;;;18.40;1.00;;;;;;5027538;28;20454;-82
2023/09/16 05:55:13;;;;;;;31.90;29.33;;;18.50;1.00;;;;;;5020696;28;20532;-80
2023/09/16 05:57:41;;;;;;;29.10;27.00;;;18.50;58.00;;;;;;5023915;28;20457;-79
2023/09/16 06:00:10;;;;;;;29.60;27.60;;;18.60;99.90;;;;;;5028499;28;20484;-81
2023/09/16 06:02:40;;;;;;;29.63;27.53;;;18.60;99.90;;;;;;5024160;28;20465;-81
2023/09/16 06:05:10;;;;;;;29.17;26.97;;;18.70;1.00;;;;;;5023992;28;20457;-82
2023/09/16 06:07:41;;;;;;;30.07;27.80;;;18.80;99.90;;;;;;5027896;28;20480;-82
2023/09/16 06:10:09;;;;;;;30.27;28.07;;;18.90;1.00;;;;;;5023693;28;20557;-83
2023/09/16 06:12:38;;;;;;;31.83;29.37;;;18.90;1.00;;;;;;5024318;28;20464;-80
2023/09/16 06:15:07;;;;;;;30.43;28.13;;;19.00;99.90;;;;;;5022852;28;20449;-81
2023/09/16 06:17:35;;;;;;;30.27;28.03;;;19.10;99.90;;;;;;5026340;28;20472;-84
2023/09/16 06:20:06;;;;;;;29.87;27.77;;;19.10;99.90;;;;;;5014036;28;20480;-83
2023/09/16 06:22:34;;;;;;;29.43;27.37;;;19.00;99.90;;;;;;5029692;28;20456;-81
2023/09/16 06:25:05;;;;;;;29.27;27.20;;;19.10;99.90;;;;;;5016581;28;20997;-74
2023/09/16 06:27:33;;;;;;;30.80;28.60;;;19.20;1.00;;;;;;5018582;28;20464;-74
2023/09/16 06:30:02;;;;;;;29.80;27.53;;;19.10;22.40;;;;;;5016615;28;20476;-78
2023/09/16 06:32:30;;;;;;;30.07;27.97;;;19.10;99.90;;;;;;5024223;28;20453;-74
2023/09/16 06:34:58;;;;;;;30.37;27.97;;;19.10;99.90;;;;;;5019487;28;20492;-73
2023/09/16 06:37:27;;;;;;;29.07;26.97;;;19.20;99.90;;;;;;5023496;28;20614;-74
2023/09/16 06:39:55;;;;;;;31.87;29.57;;;19.20;99.90;;;;;;5025208;28;20476;-74
2023/09/16 06:42:24;;;;;;;29.40;27.30;;;19.20;1.00;;;;;;5021328;28;20475;-75
2023/09/16 06:44:54;;;;;;;31.23;28.70;;;19.20;1.00;;;;;;5023212;28;20488;-75
2023/09/16 06:47:26;;;;;;;31.13;28.53;;;19.30;99.90;;;;;;5023551;28;20455;-73
2023/09/16 06:49:56;;;;;;;29.30;27.20;;;19.30;99.90;;;;;;5018437;28;20578;-72
2023/09/16 06:52:26;;;;;;;29.27;26.93;;;19.30;1.00;;;;;;5017956;28;20476;-76
2023/09/16 06:54:56;;;;;;;29.60;27.53;;;19.40;99.90;;;;;;5020193;28;20463;-74
2023/09/16 06:57:24;;;;;;;30.53;28.33;;;19.40;1.00;;;;;;5021445;28;20463;-73
2023/09/16 06:59:52;;;;;;;31.73;29.37;;;19.40;99.90;;;;;;5021194;28;21046;-73
2023/09/16 07:02:23;;;;;;;31.00;28.50;;;19.60;99.90;;;;;;5021269;28;20556;-71
2023/09/16 07:04:51;;;;;;;29.07;26.97;;;19.70;99.90;;;;;;5018720;28;20522;-72
2023/09/16 07:07:23;;;;;;;29.50;27.40;;;19.70;1.00;;;;;;5014858;28;20455;-71
2023/09/16 07:09:55;;;;;;;29.17;27.07;;;19.80;99.90;;;;;;5022717;28;22349;-72
2023/09/16 07:12:24;;;;;;;28.00;26.00;;;19.80;99.90;;;;;;5018905;28;20516;-74
2023/09/16 07:14:52;;;;;;;29.30;26.97;;;19.90;99.90;;;;;;5018269;28;20552;-73
2023/09/16 07:17:20;;;;;;;28.00;25.90;;;19.90;99.90;;;;;;5017874;28;20479;-72
2023/09/16 07:19:48;;;;;;;28.83;26.87;;;20.00;99.90;;;;;;5020033;28;20476;-72
2023/09/16 07:22:18;;;;;;;27.77;25.87;;;20.10;99.90;;;;;;5020772;28;20517;-79
2023/09/16 07:24:46;;;;;;;26.67;24.93;;;20.20;99.90;;;;;;5027331;28;20491;-79
2023/09/16 07:27:17;;;;;;;27.40;25.70;;;20.30;1.00;;;;;;5024345;28;20452;-80
2023/09/16 07:29:45;;;;;;;28.23;26.43;;;20.40;1.00;;;;;;5028881;28;20485;-81
2023/09/16 07:32:14;;;;;;;27.43;25.63;;;20.50;99.90;;;;;;5028717;28;21035;-80
2023/09/16 07:34:42;;;;;;;26.90;25.10;;;20.60;1.00;;;;;;5023805;28;20588;-79
2023/09/16 07:37:12;;;;;;;26.73;25.13;;;20.70;92.90;;;;;;5027092;28;20898;-79
2023/09/16 07:39:41;;;;;;;26.50;24.90;;;20.70;92.00;;;;;;5024448;28;20476;-79
2023/09/16 07:42:15;;;;;;;26.13;24.53;;;20.80;14.60;;;;;;5026926;28;20950;-81
2023/09/16 07:44:44;;;;;;;26.33;24.60;;;20.90;1.00;;;;;;5025723;28;20479;-80
2023/09/16 07:47:19;;;;;;;27.30;25.40;;;21.00;1.00;;;;;;5012426;28;20461;-81
2023/09/16 07:49:47;;;;;;;26.10;24.10;;;21.10;1.00;;;;;;5026262;28;20484;-82
2023/09/16 07:52:15;;;;;;;25.27;23.60;;;21.40;1.00;;;;;;5025520;28;21068;-80
2023/09/16 07:54:44;;;;;;;24.27;22.87;;;21.60;1.00;;;;;;5024239;28;20535;-80
2023/09/16 07:57:13;;;;;;;25.00;23.60;;;21.90;99.90;;;;;;5026695;28;20467;-81
2023/09/16 07:59:49;;;;;;;23.30;22.03;;;22.00;99.90;;;;;;5025470;28;20468;-82
2023/09/16 08:02:17;;;;;;;24.47;23.07;;;22.10;99.90;;;;;;5027315;28;20449;-80
2023/09/16 08:04:50;;;;;;;25.47;23.90;;;22.30;99.90;;;;;;5026011;28;20946;-82
2023/09/16 08:07:18;;;;;;;24.40;23.10;;;22.50;94.70;;;;;;5023649;28;20477;-80
2023/09/16 08:09:46;;;;;;;23.00;21.80;;;22.50;4.30;;;;;;5024935;28;20495;-82
2023/09/16 08:12:19;;;;;;;24.33;22.93;;;22.50;9.50;;;;;;5027894;28;20468;-84
2023/09/16 08:14:49;;;;;;;23.10;21.93;;;22.50;23.90;;;;;;5028308;28;20453;-81
2023/09/16 08:17:17;;;;;;;24.23;22.80;;;22.60;1.00;;;;;;5029583;28;20456;-82
2023/09/16 08:19:45;;;;;;;23.40;22.10;;;22.50;1.00;;;;;;5027512;28;20477;-83
2023/09/16 08:22:13;;;;;;;23.20;21.70;;;22.50;1.00;;;;;;5024698;28;20540;-82
2023/09/16 08:24:41;;;;;;;24.13;22.80;;;22.50;1.00;;;;;;5026170;28;20544;-82
2023/09/16 08:27:10;;;;;;;23.97;22.67;;;22.40;1.00;;;;;;5022065;28;20458;-78
2023/09/16 08:29:38;;;;;;;29.23;27.00;;;22.40;1.00;;;;;;5024557;28;20477;-83
2023/09/16 08:32:07;;;;;;;24.33;22.93;;;22.40;1.00;;;;;;5024321;28;20481;-83
2023/09/16 08:34:36;;;;;;;25.70;24.10;;;22.50;1.00;;;;;;5029489;28;21007;-84
2023/09/16 08:37:04;;;;;;;24.73;23.33;;;22.60;1.00;;;;;;5028897;28;20527;-83
2023/09/16 08:39:36;;;;;;;24.23;22.83;;;22.60;1.00;;;;;;5032323;28;20464;-85
2023/09/16 08:42:12;;;;;;;23.93;22.53;;;22.80;1.00;;;;;;5027355;28;22158;-84
2023/09/16 08:44:44;;;;;;;22.57;21.37;;;22.90;1.00;;;;;;5030830;28;20467;-81
2023/09/16 08:47:19;;;;;;;21.67;20.30;;;23.00;1.00;;;;;;5018116;28;20496;-80
2023/09/16 08:49:53;;;;;;;22.70;21.33;;;23.20;1.00;;;;;;5022411;28;20566;-77
2023/09/16 08:52:23;;;;;;;23.17;21.90;;;23.20;1.00;;;;;;5001340;28;20874;-81
2023/09/16 08:54:52;;;;;;;23.27;21.90;;;23.30;1.00;;;;;;5011691;28;20559;-82
2023/09/16 08:57:21;;;;;;;23.63;22.30;;;23.30;1.00;;;;;;5015346;28;20458;-79
2023/09/16 08:59:52;;;;;;;24.00;22.70;;;23.50;1.00;;;;;;5007428;28;20966;-79
2023/09/16 09:02:22;;;;;;;24.00;22.60;;;23.50;1.00;;;;;;5010626;28;20449;-78
2023/09/16 09:04:50;;;;;;;21.63;20.63;;;23.60;1.00;;;;;;5006724;28;20460;-83
2023/09/16 09:07:21;;;;;;;24.57;23.17;;;23.70;1.00;;;;;;5019811;28;20461;-79
2023/09/16 09:09:49;;;;;;;23.10;21.90;;;23.80;1.00;;;;;;5018954;28;20524;-79
2023/09/16 09:12:18;;;;;;;22.57;21.37;;;24.00;1.00;;;;;;4996767;28;20477;-81
2023/09/16 09:14:48;;;;;;;23.37;21.87;;;24.10;1.00;;;;;;5018740;28;20457;-77
2023/09/16 09:17:16;;;;;;;22.53;21.43;;;24.10;1.00;;;;;;5024414;28;20523;-79
2023/09/16 09:19:46;;;;;;;21.87;20.87;;;24.10;1.00;;;;;;5022711;28;20487;-79
2023/09/16 09:22:14;;;;;;;21.53;20.50;;;24.20;1.00;;;;;;5020683;28;20510;-78
2023/09/16 09:24:43;;;;;;;21.00;20.10;;;24.20;1.00;;;;;;5017247;28;20471;-79
2023/09/16 09:27:12;;;;;;;20.60;19.70;;;24.10;1.00;;;;;;5024653;28;20456;-80
2023/09/16 09:29:41;;;;;;;20.37;19.47;;;24.20;1.00;;;;;;5022682;28;20495;-79
2023/09/16 09:32:11;;;;;;;21.10;20.10;;;24.20;1.00;;;;;;5021316;28;20484;-80
2023/09/16 09:34:39;;;;;;;20.47;19.57;;;24.20;1.00;;;;;;5017371;28;20551;-78
2023/09/16 09:37:16;;;;;;;20.03;18.93;;;24.30;1.00;;;;;;5015147;28;20453;-79
2023/09/16 09:39:45;;;;;;;20.90;19.90;;;24.30;1.00;;;;;;5019032;28;20564;-78
2023/09/16 09:42:20;;;;;;;20.60;19.70;;;24.40;1.00;;;;;;5018194;28;20457;-80
2023/09/16 09:45:00;;;;;;;21.67;20.57;;;24.40;1.00;;;;;;5019764;28;20476;-80
2023/09/16 09:47:29;;;;;;;20.97;19.97;;;24.50;1.00;;;;;;5017472;28;20869;-77
2023/09/16 09:49:57;;;;;;;21.17;20.27;;;24.60;1.00;;;;;;5015961;28;20497;-77
2023/09/16 09:52:26;;;;;;;19.70;18.90;;;24.60;99.90;;;;;;5018628;28;20466;-79
2023/09/16 09:54:57;;;;;;;19.97;19.07;;;24.70;99.90;;;;;;5016704;28;20452;-80
2023/09/16 09:57:26;;;;;;;19.92;19.02;;;24.70;99.90;;;;;;5016087;28;20944;-79
2023/09/16 09:59:55;;;;;;;19.30;18.40;;;24.70;99.90;;;;;;5012809;28;20210;-79
2023/09/16 10:02:25;;;;;;;19.80;18.93;;;24.70;99.90;;;;;;5015990;28;20460;-79
2023/09/16 10:04:58;;;;;;;18.90;18.10;;;24.60;99.90;;;;;;5011786;28;20465;-80
2023/09/16 10:07:39;;;;;;;18.77;18.03;;;24.60;99.90;;;;;;5022068;28;20463;-85
2023/09/16 10:10:38;;;;;;;20.03;19.00;;;24.70;99.90;;;;;;5025761;28;20483;-82
2023/09/16 10:13:14;;;;;;;20.03;18.97;;;24.70;99.90;;;;;;4989274;28;21183;-82
2023/09/16 10:16:00;;;;;;;18.30;17.60;;;24.70;99.90;;;;;;5023615;28;20516;-83
2023/09/16 10:18:39;;;;;;;18.17;17.43;;;24.70;99.90;;;;;;5023829;28;20473;-83
2023/09/16 10:21:20;;;;;;;18.67;17.87;;;24.70;99.90;;;;;;5022951;28;20449;-79
2023/09/16 10:23:57;;;;;;;20.00;19.10;;;24.90;99.90;;;;;;5024212;28;20453;-82
2023/09/16 10:26:32;;;;;;;19.10;18.30;;;25.00;99.90;;;;;;5022988;28;20446;-80
2023/09/16 10:29:03;;;;;;;18.43;17.63;;;24.90;99.90;;;;;;5026101;28;20468;-84
2023/09/16 10:31:44;;;;;;;18.43;17.73;;;24.90;99.90;;;;;;5026710;28;20511;-83
2023/09/16 10:34:23;;;;;;;17.87;17.23;;;24.80;99.90;;;;;;5024733;28;20473;-81
2023/09/16 10:37:16;;;;;;;18.50;17.80;;;24.90;99.90;;;;;;5019653;28;20545;-82
2023/09/16 10:40:29;;;;;;;18.33;17.63;;;24.90;99.90;;;;;;5018875;28;20888;-81
2023/09/16 10:44:07;;;;;;;18.30;17.60;;;25.00;99.90;;;;;;5025046;28;20460;-83
2023/09/16 10:46:53;;;;;;;17.20;16.50;;;25.00;99.90;;;;;;5021674;28;20469;-79
2023/09/16 10:49:24;;;;;;;17.37;16.77;;;25.10;99.90;;;;;;5018267;28;20483;-82
2023/09/16 10:52:04;;;;;;;18.23;16.90;;;25.10;99.90;;;;;;5024891;28;20466;-82
2023/09/16 10:54:41;;;;;;;16.70;16.20;;;25.30;99.90;;;;;;5017743;28;20475;-81
2023/09/16 10:57:21;;;;;;;18.00;17.30;;;25.40;99.90;;;;;;5021120;28;20540;-84
2023/09/16 11:00:04;;;;;;;17.27;16.67;;;25.50;99.90;;;;;;5019214;28;20482;-79
2023/09/16 11:02:39;;;;;;;16.93;16.33;;;25.50;99.90;;;;;;5021513;28;20441;-80
2023/09/16 11:05:08;;;;;;;16.00;15.50;;;25.50;99.90;;;;;;5021236;28;20992;-81
2023/09/16 11:07:36;;;;;;;15.80;15.40;;;25.60;99.90;;;;;;5022560;28;21278;-81
2023/09/16 11:10:06;;;;;;;16.07;15.57;;;25.60;99.90;;;;;;5019230;28;20489;-80
2023/09/16 11:12:36;;;;;;;16.23;15.73;;;25.70;99.90;;;;;;5017074;28;20449;-80
2023/09/16 11:15:08;;;;;;;16.00;15.57;;;25.80;99.90;;;;;;5011321;28;20477;-81
2023/09/16 11:17:39;;;;;;;15.60;15.10;;;25.80;99.90;;;;;;5019819;28;20460;-79
2023/09/16 11:20:28;;;;;;;15.40;15.00;;;25.80;99.90;;;;;;5005931;28;20575;-80
2023/09/16 11:26:22;;;;;;;16.17;15.60;;;25.80;99.90;;;;;;4926904;28;20471;-80
2023/09/16 11:29:22;;;;;;;16.83;16.30;;;25.70;99.90;;;;;;5018487;28;20494;-80
2023/09/16 11:32:03;;;;;;;16.50;16.00;;;25.80;99.90;;;;;;5021540;28;20469;-80
2023/09/16 11:35:12;;;;;;;16.67;16.03;;;25.80;99.90;;;;;;5021042;28;20487;-80
2023/09/16 11:37:57;;;;;;;15.83;15.30;;;25.80;99.90;;;;;;5021331;28;20448;-79
2023/09/16 11:40:33;;;;;;;16.87;16.17;;;26.00;99.90;;;;;;5007699;28;20460;-81
2023/09/16 11:43:08;;;;;;;16.17;15.67;;;26.00;99.90;;;;;;5021307;28;20833;-84
2023/09/16 11:45:55;;;;;;;16.20;15.60;;;26.00;99.90;;;;;;5030432;28;20457;-84
2023/09/16 11:48:50;;;;;;;15.40;14.90;;;26.10;99.90;;;;;;5020966;28;20483;-83
2023/09/16 11:51:24;;;;;;;15.20;14.70;;;26.10;99.90;;;;;;5014560;28;20469;-84
2023/09/16 11:53:57;;;;;;;15.40;14.90;;;26.10;99.90;;;;;;5031640;28;20599;-83
2023/09/16 11:56:34;;;;;;;15.03;14.63;;;26.10;99.90;;;;;;5011620;28;20540;-87
2023/09/16 11:59:04;;;;;;;14.40;13.90;;;26.10;99.90;;;;;;5012568;28;20480;-84
2023/09/16 12:02:03;;;;;;;15.30;14.90;;;26.00;99.90;;;;;;5008349;28;20483;-82
2023/09/16 12:04:36;;;;;;;15.33;14.93;;;26.00;99.90;;;;;;5016517;28;20443;-83
2023/09/16 12:07:04;;;;;;;14.03;13.63;;;26.10;99.90;;;;;;5031360;28;20543;-84
2023/09/16 12:09:33;;;;;;;14.17;13.77;;;26.10;99.90;;;;;;5030515;28;20465;-83
2023/09/16 12:12:05;;;;;;;14.33;13.93;;;26.20;99.90;;;;;;5022296;28;20544;-82
2023/09/16 12:14:33;;;;;;;15.90;15.40;;;26.20;99.90;;;;;;5024643;28;20476;-83
2023/09/16 12:17:05;;;;;;;15.00;14.50;;;26.20;99.90;;;;;;5028138;28;20539;-81
2023/09/16 12:19:49;;;;;;;15.77;15.27;;;26.20;99.90;;;;;;5030380;28;20475;-82
2023/09/16 12:22:17;;;;;;;15.00;14.60;;;26.20;99.90;;;;;;5025445;28;20545;-83
2023/09/16 12:24:46;;;;;;;16.13;15.63;;;26.20;99.90;;;;;;5009602;28;20488;-84
2023/09/16 12:27:14;;;;;;;16.00;15.40;;;26.30;99.90;;;;;;5026805;28;20440;-83
2023/09/16 12:29:43;;;;;;;15.17;14.77;;;26.30;99.90;;;;;;5027226;28;20572;-83
2023/09/16 12:32:17;;;;;;;15.00;14.60;;;26.20;99.90;;;;;;5027086;28;20473;-84
2023/09/16 12:34:45;;;;;;;15.00;14.60;;;26.20;99.90;;;;;;5027035;28;20473;-85
2023/09/16 12:37:14;;;;;;;14.60;14.20;;;26.40;99.90;;;;;;5007047;28;20457;-83
2023/09/16 12:39:44;;;;;;;15.13;14.73;;;26.30;99.90;;;;;;5030000;28;20488;-84
2023/09/16 12:42:12;;;;;;;14.57;14.10;;;26.40;99.90;;;;;;5008941;28;20474;-82
2023/09/16 12:44:44;;;;;;;14.27;13.90;;;26.40;99.90;;;;;;5027505;28;20974;-81
2023/09/16 12:47:15;;;;;;;14.27;13.87;;;26.50;99.90;;;;;;5011230;28;20502;-84
2023/09/16 12:49:44;;;;;;;14.80;14.30;;;26.40;99.90;;;;;;5023735;28;20489;-84
2023/09/16 12:52:14;;;;;;;14.30;13.90;;;26.40;99.90;;;;;;5020472;28;20544;-81
2023/09/16 12:54:43;;;;;;;13.83;13.43;;;26.50;99.90;;;;;;5019930;28;20473;-81